sensor_id;sensor_type;location;lat;lon;timestamp;P1;durP1;ratioP1;P2;durP2;ratioP2
26598;SDS011;14240;51.064;16.612;2022-12-07T00:01:26;5.82;;;3.90;;
26598;SDS011;14240;51.064;16.612;2022-12-07T00:03:54;6.75;;;3.53;;
26598;SDS011;14240;51.064;16.612;2022-12-07T00:06:40;5.38;;;3.13;;
26598;SDS011;14240;51.064;16.612;2022-12-07T00:09:09;5.38;;;2.75;;
26598;SDS011;14240;51.064;16.612;2022-12-07T00:11:37;4.80;;;2.72;;
26598;SDS011;14240;51.064;16.612;2022-12-07T00:14:05;4.63;;;2.63;;
26598;SDS011;14240;51.064;16.612;2022-12-07T00:16:33;5.50;;;2.70;;
26598;SDS011;14240;51.064;16.612;2022-12-07T00:18:59;4.30;;;2.73;;
26598;SDS011;14240;51.064;16.612;2022-12-07T00:21:29;5.10;;;2.80;;
26598;SDS011;14240;51.064;16.612;2022-12-07T00:23:57;4.45;;;2.30;;
26598;SDS011;14240;51.064;16.612;2022-12-07T00:26:30;6.75;;;2.65;;
26598;SDS011;14240;51.064;16.612;2022-12-07T00:29:21;3.72;;;2.30;;
26598;SDS011;14240;51.064;16.612;2022-12-07T00:31:47;3.72;;;2.33;;
26598;SDS011;14240;51.064;16.612;2022-12-07T00:34:17;3.30;;;1.98;;
26598;SDS011;14240;51.064;16.612;2022-12-07T00:36:44;4.57;;;2.33;;
26598;SDS011;14240;51.064;16.612;2022-12-07T00:39:10;3.75;;;1.98;;
26598;SDS011;14240;51.064;16.612;2022-12-07T00:41:36;2.67;;;1.90;;
26598;SDS011;14240;51.064;16.612;2022-12-07T00:44:02;3.22;;;2.08;;
26598;SDS011;14240;51.064;16.612;2022-12-07T00:46:28;3.92;;;2.35;;
26598;SDS011;14240;51.064;16.612;2022-12-07T00:48:54;3.67;;;1.80;;
26598;SDS011;14240;51.064;16.612;2022-12-07T00:51:22;3.53;;;2.22;;
26598;SDS011;14240;51.064;16.612;2022-12-07T00:53:49;3.20;;;1.77;;
26598;SDS011;14240;51.064;16.612;2022-12-07T00:56:22;2.80;;;1.65;;
26598;SDS011;14240;51.064;16.612;2022-12-07T00:59:03;2.92;;;2.08;;
26598;SDS011;14240;51.064;16.612;2022-12-07T01:01:31;3.78;;;1.83;;
26598;SDS011;14240;51.064;16.612;2022-12-07T01:03:58;2.13;;;1.85;;
26598;SDS011;14240;51.064;16.612;2022-12-07T01:06:26;2.83;;;1.75;;
26598;SDS011;14240;51.064;16.612;2022-12-07T01:08:53;3.05;;;1.58;;
26598;SDS011;14240;51.064;16.612;2022-12-07T01:11:20;3.30;;;2.40;;
26598;SDS011;14240;51.064;16.612;2022-12-07T01:13:49;1.50;;;1.40;;
26598;SDS011;14240;51.064;16.612;2022-12-07T01:16:16;1.98;;;1.30;;
26598;SDS011;14240;51.064;16.612;2022-12-07T01:18:45;2.10;;;1.60;;
26598;SDS011;14240;51.064;16.612;2022-12-07T01:21:13;2.35;;;1.70;;
26598;SDS011;14240;51.064;16.612;2022-12-07T01:23:46;4.65;;;2.00;;
26598;SDS011;14240;51.064;16.612;2022-12-07T01:26:14;3.08;;;1.75;;
26598;SDS011;14240;51.064;16.612;2022-12-07T01:28:42;3.90;;;2.65;;
26598;SDS011;14240;51.064;16.612;2022-12-07T01:31:09;1.85;;;1.73;;
26598;SDS011;14240;51.064;16.612;2022-12-07T01:33:37;5.65;;;2.80;;
26598;SDS011;14240;51.064;16.612;2022-12-07T01:36:07;1.63;;;1.40;;
26598;SDS011;14240;51.064;16.612;2022-12-07T01:38:37;2.35;;;1.30;;
26598;SDS011;14240;51.064;16.612;2022-12-07T01:41:03;2.72;;;1.65;;
26598;SDS011;14240;51.064;16.612;2022-12-07T01:43:30;1.50;;;1.40;;
26598;SDS011;14240;51.064;16.612;2022-12-07T01:45:57;3.00;;;1.70;;
26598;SDS011;14240;51.064;16.612;2022-12-07T01:48:25;4.60;;;1.90;;
26598;SDS011;14240;51.064;16.612;2022-12-07T01:51:10;2.90;;;1.85;;
26598;SDS011;14240;51.064;16.612;2022-12-07T01:53:40;3.38;;;1.70;;
26598;SDS011;14240;51.064;16.612;2022-12-07T01:56:10;8.18;;;2.72;;
26598;SDS011;14240;51.064;16.612;2022-12-07T01:58:38;3.13;;;1.80;;
26598;SDS011;14240;51.064;16.612;2022-12-07T02:01:04;5.30;;;2.53;;
26598;SDS011;14240;51.064;16.612;2022-12-07T02:03:31;3.78;;;2.22;;
26598;SDS011;14240;51.064;16.612;2022-12-07T02:06:08;5.30;;;2.70;;
26598;SDS011;14240;51.064;16.612;2022-12-07T02:08:36;2.78;;;2.42;;
26598;SDS011;14240;51.064;16.612;2022-12-07T02:11:03;3.20;;;2.00;;
26598;SDS011;14240;51.064;16.612;2022-12-07T02:13:30;4.70;;;2.08;;
26598;SDS011;14240;51.064;16.612;2022-12-07T02:19:01;2.00;;;1.63;;
26598;SDS011;14240;51.064;16.612;2022-12-07T02:30:07;2.70;;;1.55;;
26598;SDS011;14240;51.064;16.612;2022-12-07T02:40:23;2.63;;;2.10;;
26598;SDS011;14240;51.064;16.612;2022-12-07T02:43:01;3.15;;;2.20;;
26598;SDS011;14240;51.064;16.612;2022-12-07T02:45:32;3.53;;;2.60;;
26598;SDS011;14240;51.064;16.612;2022-12-07T02:48:01;3.40;;;2.30;;
26598;SDS011;14240;51.064;16.612;2022-12-07T02:52:54;3.38;;;2.42;;
26598;SDS011;14240;51.064;16.612;2022-12-07T02:55:23;4.00;;;2.40;;
26598;SDS011;14240;51.064;16.612;2022-12-07T03:00:22;3.45;;;2.50;;
26598;SDS011;14240;51.064;16.612;2022-12-07T03:05:36;4.10;;;2.60;;
26598;SDS011;14240;51.064;16.612;2022-12-07T03:13:18;3.05;;;2.70;;
26598;SDS011;14240;51.064;16.612;2022-12-07T03:15:50;3.80;;;3.08;;
26598;SDS011;14240;51.064;16.612;2022-12-07T03:21:06;3.42;;;2.33;;
26598;SDS011;14240;51.064;16.612;2022-12-07T03:23:37;3.22;;;2.50;;
26598;SDS011;14240;51.064;16.612;2022-12-07T03:26:03;4.60;;;2.50;;
26598;SDS011;14240;51.064;16.612;2022-12-07T03:28:32;4.15;;;2.53;;
26598;SDS011;14240;51.064;16.612;2022-12-07T03:31:10;3.95;;;3.22;;
26598;SDS011;14240;51.064;16.612;2022-12-07T03:33:47;3.65;;;2.47;;
26598;SDS011;14240;51.064;16.612;2022-12-07T03:36:28;2.88;;;1.98;;
26598;SDS011;14240;51.064;16.612;2022-12-07T03:41:37;3.50;;;1.80;;
26598;SDS011;14240;51.064;16.612;2022-12-07T03:44:03;3.92;;;2.40;;
26598;SDS011;14240;51.064;16.612;2022-12-07T03:46:42;2.53;;;1.73;;
26598;SDS011;14240;51.064;16.612;2022-12-07T03:54:29;1.75;;;1.65;;
26598;SDS011;14240;51.064;16.612;2022-12-07T03:57:02;3.50;;;1.38;;
26598;SDS011;14240;51.064;16.612;2022-12-07T03:59:30;3.08;;;2.03;;
26598;SDS011;14240;51.064;16.612;2022-12-07T04:01:58;2.90;;;1.75;;
26598;SDS011;14240;51.064;16.612;2022-12-07T04:04:28;2.28;;;1.60;;
26598;SDS011;14240;51.064;16.612;2022-12-07T04:06:53;2.55;;;1.88;;
26598;SDS011;14240;51.064;16.612;2022-12-07T04:09:19;1.42;;;1.33;;
26598;SDS011;14240;51.064;16.612;2022-12-07T04:11:45;2.17;;;1.60;;
26598;SDS011;14240;51.064;16.612;2022-12-07T04:14:11;2.50;;;1.90;;
26598;SDS011;14240;51.064;16.612;2022-12-07T04:16:43;5.03;;;2.88;;
26598;SDS011;14240;51.064;16.612;2022-12-07T04:19:22;3.75;;;2.20;;
26598;SDS011;14240;51.064;16.612;2022-12-07T04:21:50;4.45;;;2.65;;
26598;SDS011;14240;51.064;16.612;2022-12-07T04:24:15;6.85;;;1.98;;
26598;SDS011;14240;51.064;16.612;2022-12-07T04:26:41;5.82;;;2.70;;
26598;SDS011;14240;51.064;16.612;2022-12-07T04:29:08;7.90;;;3.63;;
26598;SDS011;14240;51.064;16.612;2022-12-07T04:31:34;4.47;;;2.38;;
26598;SDS011;14240;51.064;16.612;2022-12-07T04:34:00;9.48;;;3.80;;
26598;SDS011;14240;51.064;16.612;2022-12-07T04:36:26;4.13;;;2.85;;
26598;SDS011;14240;51.064;16.612;2022-12-07T04:38:52;2.75;;;2.50;;
26598;SDS011;14240;51.064;16.612;2022-12-07T04:41:19;3.92;;;2.38;;
26598;SDS011;14240;51.064;16.612;2022-12-07T04:43:52;2.92;;;2.63;;
26598;SDS011;14240;51.064;16.612;2022-12-07T04:46:21;6.75;;;3.17;;
26598;SDS011;14240;51.064;16.612;2022-12-07T04:48:48;8.80;;;3.78;;
26598;SDS011;14240;51.064;16.612;2022-12-07T04:51:15;9.00;;;5.00;;
26598;SDS011;14240;51.064;16.612;2022-12-07T04:53:44;8.45;;;4.43;;
26598;SDS011;14240;51.064;16.612;2022-12-07T04:56:09;11.10;;;4.88;;
26598;SDS011;14240;51.064;16.612;2022-12-07T04:58:35;12.85;;;5.75;;
26598;SDS011;14240;51.064;16.612;2022-12-07T05:01:01;13.57;;;6.57;;
26598;SDS011;14240;51.064;16.612;2022-12-07T05:03:26;16.27;;;7.53;;
26598;SDS011;14240;51.064;16.612;2022-12-07T05:05:52;16.80;;;6.95;;
26598;SDS011;14240;51.064;16.612;2022-12-07T05:08:17;17.55;;;7.65;;
26598;SDS011;14240;51.064;16.612;2022-12-07T05:10:43;17.48;;;7.85;;
26598;SDS011;14240;51.064;16.612;2022-12-07T05:13:09;18.85;;;8.63;;
26598;SDS011;14240;51.064;16.612;2022-12-07T05:15:34;18.73;;;8.18;;
26598;SDS011;14240;51.064;16.612;2022-12-07T05:18:00;17.13;;;7.70;;
26598;SDS011;14240;51.064;16.612;2022-12-07T05:20:26;18.98;;;8.73;;
26598;SDS011;14240;51.064;16.612;2022-12-07T05:22:51;17.27;;;7.70;;
26598;SDS011;14240;51.064;16.612;2022-12-07T05:25:17;17.75;;;8.63;;
26598;SDS011;14240;51.064;16.612;2022-12-07T05:27:43;18.52;;;9.20;;
26598;SDS011;14240;51.064;16.612;2022-12-07T05:30:08;19.75;;;8.35;;
26598;SDS011;14240;51.064;16.612;2022-12-07T05:32:34;18.85;;;8.32;;
26598;SDS011;14240;51.064;16.612;2022-12-07T05:35:00;20.83;;;9.07;;
26598;SDS011;14240;51.064;16.612;2022-12-07T05:37:25;19.58;;;9.00;;
26598;SDS011;14240;51.064;16.612;2022-12-07T05:39:51;18.27;;;8.30;;
26598;SDS011;14240;51.064;16.612;2022-12-07T05:42:16;21.48;;;9.73;;
26598;SDS011;14240;51.064;16.612;2022-12-07T05:44:43;19.40;;;9.73;;
26598;SDS011;14240;51.064;16.612;2022-12-07T05:49:36;17.75;;;8.63;;
26598;SDS011;14240;51.064;16.612;2022-12-07T05:52:02;26.90;;;9.95;;
26598;SDS011;14240;51.064;16.612;2022-12-07T05:54:28;22.45;;;11.48;;
26598;SDS011;14240;51.064;16.612;2022-12-07T05:56:54;24.63;;;10.75;;
26598;SDS011;14240;51.064;16.612;2022-12-07T05:59:20;23.10;;;10.20;;
26598;SDS011;14240;51.064;16.612;2022-12-07T06:01:49;20.17;;;9.70;;
26598;SDS011;14240;51.064;16.612;2022-12-07T06:04:15;19.63;;;9.75;;
26598;SDS011;14240;51.064;16.612;2022-12-07T06:06:41;26.52;;;10.63;;
26598;SDS011;14240;51.064;16.612;2022-12-07T06:09:07;29.08;;;10.70;;
26598;SDS011;14240;51.064;16.612;2022-12-07T06:11:32;21.15;;;10.18;;
26598;SDS011;14240;51.064;16.612;2022-12-07T06:14:17;21.73;;;9.38;;
26598;SDS011;14240;51.064;16.612;2022-12-07T06:16:42;22.27;;;9.38;;
26598;SDS011;14240;51.064;16.612;2022-12-07T06:19:08;26.13;;;10.55;;
26598;SDS011;14240;51.064;16.612;2022-12-07T06:21:34;24.13;;;10.45;;
26598;SDS011;14240;51.064;16.612;2022-12-07T06:23:59;21.83;;;9.45;;
26598;SDS011;14240;51.064;16.612;2022-12-07T06:26:25;22.25;;;9.38;;
26598;SDS011;14240;51.064;16.612;2022-12-07T06:28:51;21.70;;;9.40;;
26598;SDS011;14240;51.064;16.612;2022-12-07T06:31:16;22.75;;;10.25;;
26598;SDS011;14240;51.064;16.612;2022-12-07T06:33:42;20.83;;;9.82;;
26598;SDS011;14240;51.064;16.612;2022-12-07T06:36:08;21.70;;;8.80;;
26598;SDS011;14240;51.064;16.612;2022-12-07T06:38:34;23.20;;;9.45;;
26598;SDS011;14240;51.064;16.612;2022-12-07T06:41:00;24.38;;;9.38;;
26598;SDS011;14240;51.064;16.612;2022-12-07T06:43:26;22.65;;;11.10;;
26598;SDS011;14240;51.064;16.612;2022-12-07T06:45:52;20.13;;;10.35;;
26598;SDS011;14240;51.064;16.612;2022-12-07T06:48:18;23.70;;;10.30;;
26598;SDS011;14240;51.064;16.612;2022-12-07T06:50:47;22.92;;;10.57;;
26598;SDS011;14240;51.064;16.612;2022-12-07T06:53:13;22.05;;;11.07;;
26598;SDS011;14240;51.064;16.612;2022-12-07T06:55:39;20.10;;;10.23;;
26598;SDS011;14240;51.064;16.612;2022-12-07T06:58:04;70.03;;;17.27;;
26598;SDS011;14240;51.064;16.612;2022-12-07T07:00:30;33.40;;;12.43;;
26598;SDS011;14240;51.064;16.612;2022-12-07T07:02:56;33.00;;;11.45;;
26598;SDS011;14240;51.064;16.612;2022-12-07T07:05:21;74.60;;;14.02;;
26598;SDS011;14240;51.064;16.612;2022-12-07T07:07:48;26.10;;;10.95;;
26598;SDS011;14240;51.064;16.612;2022-12-07T07:10:14;26.52;;;11.50;;
26598;SDS011;14240;51.064;16.612;2022-12-07T07:12:40;23.65;;;10.63;;
26598;SDS011;14240;51.064;16.612;2022-12-07T07:15:05;26.33;;;11.65;;
26598;SDS011;14240;51.064;16.612;2022-12-07T07:17:32;26.52;;;11.15;;
26598;SDS011;14240;51.064;16.612;2022-12-07T07:19:57;25.40;;;11.18;;
26598;SDS011;14240;51.064;16.612;2022-12-07T07:22:23;23.30;;;9.98;;
26598;SDS011;14240;51.064;16.612;2022-12-07T07:24:48;21.65;;;10.02;;
26598;SDS011;14240;51.064;16.612;2022-12-07T07:27:14;21.70;;;10.77;;
26598;SDS011;14240;51.064;16.612;2022-12-07T07:29:39;22.23;;;10.18;;
26598;SDS011;14240;51.064;16.612;2022-12-07T07:32:05;25.60;;;10.00;;
26598;SDS011;14240;51.064;16.612;2022-12-07T07:34:32;26.80;;;11.00;;
26598;SDS011;14240;51.064;16.612;2022-12-07T07:36:58;23.60;;;10.73;;
26598;SDS011;14240;51.064;16.612;2022-12-07T07:39:23;27.88;;;11.63;;
26598;SDS011;14240;51.064;16.612;2022-12-07T07:41:49;19.02;;;9.65;;
26598;SDS011;14240;51.064;16.612;2022-12-07T07:44:15;21.20;;;9.95;;
26598;SDS011;14240;51.064;16.612;2022-12-07T07:46:40;20.52;;;9.98;;
26598;SDS011;14240;51.064;16.612;2022-12-07T07:49:06;20.60;;;10.57;;
26598;SDS011;14240;51.064;16.612;2022-12-07T07:51:31;17.50;;;9.60;;
26598;SDS011;14240;51.064;16.612;2022-12-07T07:53:57;19.73;;;9.90;;
26598;SDS011;14240;51.064;16.612;2022-12-07T07:56:22;19.15;;;9.77;;
26598;SDS011;14240;51.064;16.612;2022-12-07T07:58:51;16.23;;;8.30;;
26598;SDS011;14240;51.064;16.612;2022-12-07T08:01:17;17.20;;;8.40;;
26598;SDS011;14240;51.064;16.612;2022-12-07T08:03:44;21.63;;;9.48;;
26598;SDS011;14240;51.064;16.612;2022-12-07T08:06:11;21.55;;;9.35;;
26598;SDS011;14240;51.064;16.612;2022-12-07T08:08:36;17.58;;;9.55;;
26598;SDS011;14240;51.064;16.612;2022-12-07T08:11:04;15.70;;;9.23;;
26598;SDS011;14240;51.064;16.612;2022-12-07T08:13:31;15.65;;;8.40;;
26598;SDS011;14240;51.064;16.612;2022-12-07T08:15:56;15.95;;;9.10;;
26598;SDS011;14240;51.064;16.612;2022-12-07T08:18:22;17.15;;;9.25;;
26598;SDS011;14240;51.064;16.612;2022-12-07T08:20:48;18.60;;;9.02;;
26598;SDS011;14240;51.064;16.612;2022-12-07T08:23:13;14.23;;;8.35;;
26598;SDS011;14240;51.064;16.612;2022-12-07T08:25:39;19.67;;;8.88;;
26598;SDS011;14240;51.064;16.612;2022-12-07T08:28:05;12.50;;;7.40;;
26598;SDS011;14240;51.064;16.612;2022-12-07T08:30:31;16.33;;;7.70;;
26598;SDS011;14240;51.064;16.612;2022-12-07T08:32:57;17.35;;;8.45;;
26598;SDS011;14240;51.064;16.612;2022-12-07T08:35:23;16.58;;;6.70;;
26598;SDS011;14240;51.064;16.612;2022-12-07T08:37:49;18.98;;;9.25;;
26598;SDS011;14240;51.064;16.612;2022-12-07T08:40:14;18.48;;;8.30;;
26598;SDS011;14240;51.064;16.612;2022-12-07T08:42:41;22.48;;;10.40;;
26598;SDS011;14240;51.064;16.612;2022-12-07T08:45:10;14.27;;;8.27;;
26598;SDS011;14240;51.064;16.612;2022-12-07T08:47:38;11.00;;;6.28;;
26598;SDS011;14240;51.064;16.612;2022-12-07T08:50:09;12.52;;;7.20;;
26598;SDS011;14240;51.064;16.612;2022-12-07T08:52:36;18.83;;;9.40;;
26598;SDS011;14240;51.064;16.612;2022-12-07T08:55:02;20.27;;;10.95;;
26598;SDS011;14240;51.064;16.612;2022-12-07T08:57:29;33.22;;;14.65;;
26598;SDS011;14240;51.064;16.612;2022-12-07T08:59:57;52.00;;;20.98;;
26598;SDS011;14240;51.064;16.612;2022-12-07T09:02:22;48.80;;;21.30;;
26598;SDS011;14240;51.064;16.612;2022-12-07T09:04:48;52.78;;;21.65;;
26598;SDS011;14240;51.064;16.612;2022-12-07T09:07:14;90.00;;;32.60;;
26598;SDS011;14240;51.064;16.612;2022-12-07T09:09:40;104.78;;;35.72;;
26598;SDS011;14240;51.064;16.612;2022-12-07T09:12:05;126.93;;;40.88;;
26598;SDS011;14240;51.064;16.612;2022-12-07T09:14:31;147.10;;;55.35;;
26598;SDS011;14240;51.064;16.612;2022-12-07T09:17:04;72.65;;;31.00;;
26598;SDS011;14240;51.064;16.612;2022-12-07T09:19:34;22.77;;;11.70;;
26598;SDS011;14240;51.064;16.612;2022-12-07T09:22:00;16.08;;;8.68;;
26598;SDS011;14240;51.064;16.612;2022-12-07T09:24:26;19.60;;;9.43;;
26598;SDS011;14240;51.064;16.612;2022-12-07T09:26:52;19.70;;;9.15;;
26598;SDS011;14240;51.064;16.612;2022-12-07T09:29:17;23.35;;;9.80;;
26598;SDS011;14240;51.064;16.612;2022-12-07T09:31:43;30.65;;;12.45;;
26598;SDS011;14240;51.064;16.612;2022-12-07T09:34:08;32.55;;;12.50;;
26598;SDS011;14240;51.064;16.612;2022-12-07T09:36:34;28.50;;;11.63;;
26598;SDS011;14240;51.064;16.612;2022-12-07T09:39:00;32.72;;;11.52;;
26598;SDS011;14240;51.064;16.612;2022-12-07T09:41:26;33.63;;;11.98;;
26598;SDS011;14240;51.064;16.612;2022-12-07T09:43:56;28.20;;;10.55;;
26598;SDS011;14240;51.064;16.612;2022-12-07T09:46:28;25.42;;;11.20;;
26598;SDS011;14240;51.064;16.612;2022-12-07T09:48:58;44.00;;;15.20;;
26598;SDS011;14240;51.064;16.612;2022-12-07T09:51:23;28.33;;;10.88;;
26598;SDS011;14240;51.064;16.612;2022-12-07T09:53:49;50.67;;;17.27;;
26598;SDS011;14240;51.064;16.612;2022-12-07T09:56:17;28.98;;;10.55;;
26598;SDS011;14240;51.064;16.612;2022-12-07T09:58:43;23.85;;;10.00;;
26598;SDS011;14240;51.064;16.612;2022-12-07T10:03:38;25.05;;;9.27;;
26598;SDS011;14240;51.064;16.612;2022-12-07T10:06:10;21.60;;;7.60;;
26598;SDS011;14240;51.064;16.612;2022-12-07T10:08:37;16.75;;;6.38;;
26598;SDS011;14240;51.064;16.612;2022-12-07T10:11:03;12.68;;;5.85;;
26598;SDS011;14240;51.064;16.612;2022-12-07T10:16:06;12.90;;;5.63;;
26598;SDS011;14240;51.064;16.612;2022-12-07T10:18:52;11.00;;;5.25;;
26598;SDS011;14240;51.064;16.612;2022-12-07T10:21:19;6.60;;;4.38;;
26598;SDS011;14240;51.064;16.612;2022-12-07T10:29:02;7.03;;;4.25;;
26598;SDS011;14240;51.064;16.612;2022-12-07T10:31:55;11.25;;;4.28;;
26598;SDS011;14240;51.064;16.612;2022-12-07T10:36:50;6.65;;;3.40;;
26598;SDS011;14240;51.064;16.612;2022-12-07T10:41:52;8.63;;;4.22;;
26598;SDS011;14240;51.064;16.612;2022-12-07T10:44:21;7.20;;;4.78;;
26598;SDS011;14240;51.064;16.612;2022-12-07T10:49:43;6.80;;;4.22;;
26598;SDS011;14240;51.064;16.612;2022-12-07T11:00:25;7.32;;;4.80;;
26598;SDS011;14240;51.064;16.612;2022-12-07T11:11:33;6.95;;;4.85;;
26598;SDS011;14240;51.064;16.612;2022-12-07T11:21:57;12.15;;;4.75;;
26598;SDS011;14240;51.064;16.612;2022-12-07T11:24:27;7.63;;;3.95;;
26598;SDS011;14240;51.064;16.612;2022-12-07T11:27:09;10.07;;;5.70;;
26598;SDS011;14240;51.064;16.612;2022-12-07T11:30:09;11.15;;;5.50;;
26598;SDS011;14240;51.064;16.612;2022-12-07T11:32:49;11.15;;;6.13;;
26598;SDS011;14240;51.064;16.612;2022-12-07T11:35:30;9.98;;;6.60;;
26598;SDS011;14240;51.064;16.612;2022-12-07T11:37:59;9.23;;;5.95;;
26598;SDS011;14240;51.064;16.612;2022-12-07T11:40:35;9.68;;;5.55;;
26598;SDS011;14240;51.064;16.612;2022-12-07T11:43:04;9.50;;;5.07;;
26598;SDS011;14240;51.064;16.612;2022-12-07T11:46:02;10.48;;;4.82;;
26598;SDS011;14240;51.064;16.612;2022-12-07T11:48:33;37.30;;;15.60;;
26598;SDS011;14240;51.064;16.612;2022-12-07T11:51:03;15.88;;;6.38;;
26598;SDS011;14240;51.064;16.612;2022-12-07T11:53:38;12.45;;;6.78;;
26598;SDS011;14240;51.064;16.612;2022-12-07T11:59:21;33.25;;;13.60;;
26598;SDS011;14240;51.064;16.612;2022-12-07T12:06:38;6.70;;;3.67;;
26598;SDS011;14240;51.064;16.612;2022-12-07T12:25:48;16.27;;;8.15;;
26598;SDS011;14240;51.064;16.612;2022-12-07T12:28:20;13.98;;;7.88;;
26598;SDS011;14240;51.064;16.612;2022-12-07T12:31:06;15.00;;;6.70;;
26598;SDS011;14240;51.064;16.612;2022-12-07T12:33:34;15.20;;;7.90;;
26598;SDS011;14240;51.064;16.612;2022-12-07T12:36:17;9.88;;;5.45;;
26598;SDS011;14240;51.064;16.612;2022-12-07T12:46:58;49.55;;;18.05;;
26598;SDS011;14240;51.064;16.612;2022-12-07T12:51:56;7.43;;;5.28;;
26598;SDS011;14240;51.064;16.612;2022-12-07T12:54:25;9.75;;;5.20;;
26598;SDS011;14240;51.064;16.612;2022-12-07T12:56:55;9.75;;;6.20;;
26598;SDS011;14240;51.064;16.612;2022-12-07T13:12:59;20.33;;;8.88;;
26598;SDS011;14240;51.064;16.612;2022-12-07T13:23:30;13.38;;;5.85;;
26598;SDS011;14240;51.064;16.612;2022-12-07T13:37:01;13.13;;;8.77;;
26598;SDS011;14240;51.064;16.612;2022-12-07T13:39:35;16.08;;;9.55;;
26598;SDS011;14240;51.064;16.612;2022-12-07T13:42:18;15.98;;;9.50;;
26598;SDS011;14240;51.064;16.612;2022-12-07T13:44:49;20.55;;;9.32;;
26598;SDS011;14240;51.064;16.612;2022-12-07T13:49:56;18.05;;;9.60;;
26598;SDS011;14240;51.064;16.612;2022-12-07T13:54:56;14.27;;;7.70;;
26598;SDS011;14240;51.064;16.612;2022-12-07T13:57:24;14.25;;;8.25;;
26598;SDS011;14240;51.064;16.612;2022-12-07T13:59:51;11.93;;;7.25;;
26598;SDS011;14240;51.064;16.612;2022-12-07T14:02:21;12.10;;;7.28;;
26598;SDS011;14240;51.064;16.612;2022-12-07T14:04:48;9.13;;;6.32;;
26598;SDS011;14240;51.064;16.612;2022-12-07T14:07:25;11.70;;;6.03;;
26598;SDS011;14240;51.064;16.612;2022-12-07T14:09:57;10.88;;;6.18;;
26598;SDS011;14240;51.064;16.612;2022-12-07T14:12:28;10.35;;;5.20;;
26598;SDS011;14240;51.064;16.612;2022-12-07T14:14:55;31.33;;;11.38;;
26598;SDS011;14240;51.064;16.612;2022-12-07T14:17:22;43.55;;;14.70;;
26598;SDS011;14240;51.064;16.612;2022-12-07T14:22:29;22.88;;;9.65;;
26598;SDS011;14240;51.064;16.612;2022-12-07T14:25:18;12.10;;;7.03;;
26598;SDS011;14240;51.064;16.612;2022-12-07T14:30:22;34.00;;;14.43;;
26598;SDS011;14240;51.064;16.612;2022-12-07T14:33:02;47.90;;;17.52;;
26598;SDS011;14240;51.064;16.612;2022-12-07T14:35:29;30.58;;;12.65;;
26598;SDS011;14240;51.064;16.612;2022-12-07T14:37:56;21.30;;;10.98;;
26598;SDS011;14240;51.064;16.612;2022-12-07T14:40:23;38.33;;;17.08;;
26598;SDS011;14240;51.064;16.612;2022-12-07T14:43:02;50.38;;;15.93;;
26598;SDS011;14240;51.064;16.612;2022-12-07T14:45:30;46.78;;;14.05;;
26598;SDS011;14240;51.064;16.612;2022-12-07T14:47:56;32.30;;;14.48;;
26598;SDS011;14240;51.064;16.612;2022-12-07T14:50:22;30.60;;;16.33;;
26598;SDS011;14240;51.064;16.612;2022-12-07T14:52:52;19.40;;;9.90;;
26598;SDS011;14240;51.064;16.612;2022-12-07T14:55:25;20.33;;;10.30;;
26598;SDS011;14240;51.064;16.612;2022-12-07T14:57:52;24.48;;;11.30;;
26598;SDS011;14240;51.064;16.612;2022-12-07T15:00:18;47.03;;;15.63;;
26598;SDS011;14240;51.064;16.612;2022-12-07T15:02:46;31.05;;;13.18;;
26598;SDS011;14240;51.064;16.612;2022-12-07T15:05:12;45.85;;;20.38;;
26598;SDS011;14240;51.064;16.612;2022-12-07T15:07:38;36.80;;;17.20;;
26598;SDS011;14240;51.064;16.612;2022-12-07T15:10:05;52.38;;;22.17;;
26598;SDS011;14240;51.064;16.612;2022-12-07T15:12:36;33.92;;;13.15;;
26598;SDS011;14240;51.064;16.612;2022-12-07T15:15:04;39.63;;;13.70;;
26598;SDS011;14240;51.064;16.612;2022-12-07T15:17:30;41.78;;;14.25;;
26598;SDS011;14240;51.064;16.612;2022-12-07T15:19:56;31.63;;;11.65;;
26598;SDS011;14240;51.064;16.612;2022-12-07T15:22:21;29.05;;;12.80;;
26598;SDS011;14240;51.064;16.612;2022-12-07T15:24:47;16.67;;;8.93;;
26598;SDS011;14240;51.064;16.612;2022-12-07T15:27:12;12.45;;;7.72;;
26598;SDS011;14240;51.064;16.612;2022-12-07T15:29:38;16.75;;;8.07;;
26598;SDS011;14240;51.064;16.612;2022-12-07T15:32:03;11.50;;;7.25;;
26598;SDS011;14240;51.064;16.612;2022-12-07T15:34:29;15.02;;;7.90;;
26598;SDS011;14240;51.064;16.612;2022-12-07T15:36:56;15.02;;;8.43;;
26598;SDS011;14240;51.064;16.612;2022-12-07T15:39:22;17.83;;;9.93;;
26598;SDS011;14240;51.064;16.612;2022-12-07T15:41:48;21.40;;;10.57;;
26598;SDS011;14240;51.064;16.612;2022-12-07T15:44:13;21.15;;;8.13;;
26598;SDS011;14240;51.064;16.612;2022-12-07T15:46:58;23.55;;;11.15;;
26598;SDS011;14240;51.064;16.612;2022-12-07T15:49:24;20.88;;;10.18;;
26598;SDS011;14240;51.064;16.612;2022-12-07T15:51:49;35.80;;;12.27;;
26598;SDS011;14240;51.064;16.612;2022-12-07T15:54:19;20.67;;;9.13;;
26598;SDS011;14240;51.064;16.612;2022-12-07T15:56:52;20.15;;;9.35;;
26598;SDS011;14240;51.064;16.612;2022-12-07T15:59:19;18.90;;;8.43;;
26598;SDS011;14240;51.064;16.612;2022-12-07T16:01:44;15.95;;;7.95;;
26598;SDS011;14240;51.064;16.612;2022-12-07T16:04:10;13.73;;;6.57;;
26598;SDS011;14240;51.064;16.612;2022-12-07T16:06:36;13.98;;;6.03;;
26598;SDS011;14240;51.064;16.612;2022-12-07T16:09:02;16.50;;;6.85;;
26598;SDS011;14240;51.064;16.612;2022-12-07T16:11:28;13.82;;;6.20;;
26598;SDS011;14240;51.064;16.612;2022-12-07T16:13:53;14.38;;;7.32;;
26598;SDS011;14240;51.064;16.612;2022-12-07T16:16:19;15.50;;;6.65;;
26598;SDS011;14240;51.064;16.612;2022-12-07T16:18:47;13.40;;;7.10;;
26598;SDS011;14240;51.064;16.612;2022-12-07T16:21:13;11.05;;;6.35;;
26598;SDS011;14240;51.064;16.612;2022-12-07T16:23:39;16.58;;;7.53;;
26598;SDS011;14240;51.064;16.612;2022-12-07T16:28:32;25.88;;;10.02;;
26598;SDS011;14240;51.064;16.612;2022-12-07T16:31:01;15.88;;;6.45;;
26598;SDS011;14240;51.064;16.612;2022-12-07T16:33:33;31.13;;;10.40;;
26598;SDS011;14240;51.064;16.612;2022-12-07T16:36:00;21.70;;;8.45;;
26598;SDS011;14240;51.064;16.612;2022-12-07T16:38:26;15.50;;;5.93;;
26598;SDS011;14240;51.064;16.612;2022-12-07T16:40:52;27.40;;;10.95;;
26598;SDS011;14240;51.064;16.612;2022-12-07T16:43:19;26.83;;;12.15;;
26598;SDS011;14240;51.064;16.612;2022-12-07T16:45:45;34.22;;;13.88;;
26598;SDS011;14240;51.064;16.612;2022-12-07T16:48:12;28.08;;;11.52;;
26598;SDS011;14240;51.064;16.612;2022-12-07T16:50:39;28.63;;;11.48;;
26598;SDS011;14240;51.064;16.612;2022-12-07T16:53:06;27.35;;;11.20;;
26598;SDS011;14240;51.064;16.612;2022-12-07T16:55:34;23.25;;;9.82;;
26598;SDS011;14240;51.064;16.612;2022-12-07T16:58:10;27.80;;;10.38;;
26598;SDS011;14240;51.064;16.612;2022-12-07T17:00:37;16.52;;;8.25;;
26598;SDS011;14240;51.064;16.612;2022-12-07T17:03:03;24.25;;;9.60;;
26598;SDS011;14240;51.064;16.612;2022-12-07T17:05:29;18.55;;;10.15;;
26598;SDS011;14240;51.064;16.612;2022-12-07T17:07:55;29.35;;;13.63;;
26598;SDS011;14240;51.064;16.612;2022-12-07T17:10:22;20.70;;;8.57;;
26598;SDS011;14240;51.064;16.612;2022-12-07T17:12:48;29.17;;;11.38;;
26598;SDS011;14240;51.064;16.612;2022-12-07T17:15:14;36.90;;;14.00;;
26598;SDS011;14240;51.064;16.612;2022-12-07T17:17:56;67.70;;;27.92;;